Time;durP1;ratioP1;P1;durP2;ratioP2;P2;SDS_P1;SDS_P2;PMS_P1;PMS_P2;Temp;Humidity;BMP_temperature;BMP_pressure;BME280_temperature;BME280_humidity;BME280_pressure;Samples;Min_cycle;Max_cycle;Signal;HPM_P1;HPM_P2
2022/11/11 00:00:49;;;;;;;6.75;3.25;;;10.70;99.90;;;;;;4938838;29;20204;-75
2022/11/11 00:03:15;;;;;;;5.55;3.10;;;10.70;99.90;;;;;;4930283;28;20712;-76
2022/11/11 00:05:41;;;;;;;5.97;3.42;;;10.70;99.90;;;;;;4932515;28;20070;-75
2022/11/11 00:08:07;;;;;;;6.13;3.15;;;10.70;99.90;;;;;;4947240;28;20039;-75
2022/11/11 00:10:33;;;;;;;7.93;3.60;;;10.70;99.90;;;;;;4941994;29;20086;-75
2022/11/11 00:13:04;;;;;;;6.53;3.53;;;10.70;99.90;;;;;;4931524;28;20038;-75
2022/11/11 00:15:30;;;;;;;6.10;3.90;;;10.70;99.90;;;;;;4946273;28;20043;-75
2022/11/11 00:26:13;;;;;;;5.22;2.42;;;10.70;99.90;;;;;;4937528;28;20394;-75
2022/11/11 00:28:39;;;;;;;6.65;2.78;;;10.70;99.90;;;;;;4943437;28;20032;-75
2022/11/11 00:31:07;;;;;;;4.35;2.40;;;10.60;99.90;;;;;;4953451;28;20027;-75
2022/11/11 00:33:33;;;;;;;5.15;2.90;;;10.60;99.90;;;;;;4966510;29;20015;-76
2022/11/11 00:35:59;;;;;;;5.88;3.08;;;10.60;99.90;;;;;;4937117;28;20028;-75
2022/11/11 00:41:10;;;;;;;5.85;2.70;;;10.80;99.90;;;;;;4939427;29;20101;-74
2022/11/11 00:43:36;;;;;;;5.13;2.90;;;10.90;99.90;;;;;;4944618;28;20058;-75
2022/11/11 00:51:30;;;;;;;4.65;2.60;;;10.80;99.90;;;;;;4935794;28;20087;-75
2022/11/11 00:53:56;;;;;;;6.47;2.80;;;10.80;99.90;;;;;;4935392;28;20032;-75
2022/11/11 00:56:22;;;;;;;7.85;3.03;;;10.70;99.90;;;;;;4934594;28;20394;-75
2022/11/11 00:58:48;;;;;;;5.03;2.53;;;10.70;99.90;;;;;;4940269;29;20040;-75
2022/11/11 01:01:15;;;;;;;5.00;2.90;;;10.70;99.90;;;;;;4936030;28;20031;-75
2022/11/11 01:03:40;;;;;;;5.45;2.22;;;10.60;99.90;;;;;;4935992;28;20042;-75
2022/11/11 01:06:06;;;;;;;5.88;3.17;;;10.60;99.90;;;;;;4943585;29;20031;-75
2022/11/11 01:08:32;;;;;;;4.65;2.95;;;10.50;99.90;;;;;;4934374;28;20039;-75
2022/11/11 01:10:58;;;;;;;6.40;3.00;;;10.40;99.90;;;;;;4930603;29;20031;-75
2022/11/11 01:13:26;;;;;;;9.32;3.63;;;10.30;99.90;;;;;;4930743;28;20035;-75
2022/11/11 01:15:57;;;;;;;6.90;2.80;;;10.20;99.90;;;;;;4944628;29;20035;-75
2022/11/11 01:18:25;;;;;;;7.00;3.88;;;10.20;99.90;;;;;;4941421;28;20035;-75
2022/11/11 01:21:18;;;;;;;5.68;2.90;;;10.20;99.90;;;;;;4930428;29;20107;-75
2022/11/11 01:23:46;;;;;;;5.30;2.88;;;10.10;99.90;;;;;;4931331;29;20043;-75
2022/11/11 01:26:26;;;;;;;5.63;3.08;;;10.00;99.90;;;;;;4944933;28;20046;-75
2022/11/11 01:28:54;;;;;;;5.85;3.10;;;10.00;99.90;;;;;;4943136;28;20042;-75
2022/11/11 01:31:22;;;;;;;4.68;2.92;;;9.80;99.90;;;;;;4933788;28;20395;-75
2022/11/11 01:33:48;;;;;;;5.25;3.35;;;9.80;99.90;;;;;;4943377;29;20135;-75
2022/11/11 01:36:19;;;;;;;6.20;3.30;;;9.90;99.90;;;;;;4947849;28;20031;-75
2022/11/11 01:38:49;;;;;;;8.23;3.28;;;9.80;99.90;;;;;;4941442;28;20031;-75
2022/11/11 01:41:31;;;;;;;6.68;3.58;;;9.80;99.90;;;;;;4938875;28;20035;-75
2022/11/11 01:44:12;;;;;;;10.20;3.90;;;9.80;99.90;;;;;;4940343;29;20050;-75
2022/11/11 01:47:00;;;;;;;6.18;3.08;;;9.70;99.90;;;;;;4936901;28;20039;-75
2022/11/11 01:49:32;;;;;;;4.07;2.00;;;9.80;99.90;;;;;;4931353;29;20139;-75
2022/11/11 01:52:19;;;;;;;5.93;2.50;;;10.20;99.90;;;;;;4940317;28;20035;-75
2022/11/11 01:54:57;;;;;;;4.88;2.40;;;10.30;99.90;;;;;;4936716;28;20028;-75
2022/11/11 01:57:24;;;;;;;5.65;2.40;;;10.30;99.90;;;;;;4934493;28;20114;-75
2022/11/11 01:59:59;;;;;;;4.63;1.83;;;10.20;99.90;;;;;;4947364;28;20387;-75
2022/11/11 02:02:47;;;;;;;;;;;10.10;99.90;;;;;;4939835;28;20514;-75
2022/11/11 02:08:04;;;;;;;6.88;2.50;;;10.10;99.90;;;;;;4931675;29;20051;-75
2022/11/11 02:10:32;;;;;;;5.93;2.70;;;10.00;99.90;;;;;;4944575;28;20035;-75
2022/11/11 02:15:43;;;;;;;5.30;3.33;;;9.80;99.90;;;;;;4931252;29;20050;-75
2022/11/11 02:18:08;;;;;;;5.85;3.42;;;9.70;99.90;;;;;;4932257;29;20040;-75
2022/11/11 02:20:41;;;;;;;6.35;3.08;;;9.60;99.90;;;;;;4941108;28;20442;-75
2022/11/11 02:23:15;;;;;;;4.53;2.65;;;9.50;99.90;;;;;;4946993;28;20181;-75
2022/11/11 02:25:46;;;;;;;5.28;2.55;;;9.50;99.90;;;;;;4951032;29;20073;-75
2022/11/11 02:28:13;;;;;;;4.90;2.47;;;9.30;99.90;;;;;;4942367;28;20035;-75
2022/11/11 02:30:39;;;;;;;4.68;2.55;;;9.40;99.90;;;;;;4946843;28;20079;-75
2022/11/11 02:33:05;;;;;;;8.02;3.10;;;9.20;99.90;;;;;;4934205;28;20418;-75
2022/11/11 02:35:41;;;;;;;5.82;3.25;;;9.00;99.90;;;;;;4941028;28;20040;-75
2022/11/11 02:38:10;;;;;;;5.60;2.58;;;9.00;99.90;;;;;;4941364;28;20036;-75
2022/11/11 02:43:26;;;;;;;5.53;2.45;;;9.00;99.90;;;;;;4946006;28;20402;-75
2022/11/11 02:45:52;;;;;;;3.75;2.00;;;9.00;99.90;;;;;;4944147;28;20039;-75
2022/11/11 02:48:18;;;;;;;5.78;2.90;;;8.90;99.90;;;;;;4941479;28;20044;-75
2022/11/11 02:50:43;;;;;;;3.45;2.13;;;9.00;99.90;;;;;;4940073;28;20046;-75
2022/11/11 02:53:09;;;;;;;4.55;2.20;;;9.10;99.90;;;;;;4946123;29;20034;-75
2022/11/11 02:55:34;;;;;;;4.30;2.42;;;9.10;99.90;;;;;;4941934;28;20055;-75
2022/11/11 02:58:00;;;;;;;5.38;2.45;;;9.00;99.90;;;;;;4946426;28;20043;-75
2022/11/11 03:00:26;;;;;;;4.05;2.60;;;9.00;99.90;;;;;;4938868;28;20038;-75
2022/11/11 03:02:51;;;;;;;9.88;2.42;;;9.10;99.90;;;;;;4938833;28;20394;-75
2022/11/11 03:05:17;;;;;;;5.55;2.95;;;9.20;99.90;;;;;;4938780;28;20271;-75
2022/11/11 03:07:43;;;;;;;4.57;2.28;;;9.20;99.90;;;;;;4941743;28;20059;-75
2022/11/11 03:10:09;;;;;;;4.78;2.58;;;9.10;99.90;;;;;;4938763;28;20035;-75
2022/11/11 03:12:34;;;;;;;6.25;2.45;;;9.00;99.90;;;;;;4933687;28;20032;-75
2022/11/11 03:15:00;;;;;;;4.03;2.05;;;8.90;99.90;;;;;;4944274;29;20031;-75
2022/11/11 03:17:38;;;;;;;4.35;2.00;;;9.10;99.90;;;;;;4939175;28;20032;-75
2022/11/11 03:23:19;;;;;;;5.05;2.00;;;9.40;99.90;;;;;;4942565;28;20065;-75
2022/11/11 03:25:47;;;;;;;5.72;1.80;;;9.10;99.90;;;;;;4945962;28;20526;-75
2022/11/11 03:28:17;;;;;;;4.78;1.90;;;9.00;99.90;;;;;;4937045;28;20031;-75
2022/11/11 03:30:45;;;;;;;5.30;2.00;;;9.00;99.90;;;;;;4947182;28;20510;-75
2022/11/11 03:33:12;;;;;;;4.65;2.33;;;9.00;99.90;;;;;;4940120;29;20032;-75
2022/11/11 03:35:38;;;;;;;4.38;2.20;;;8.90;99.90;;;;;;4933015;28;20031;-74
2022/11/11 03:38:23;;;;;;;4.07;2.13;;;8.90;99.90;;;;;;4943768;28;20073;-75
2022/11/11 03:40:52;;;;;;;4.50;2.10;;;8.80;99.90;;;;;;4933556;28;20035;-75
2022/11/11 03:43:19;;;;;;;4.05;1.90;;;8.70;99.90;;;;;;4936222;29;20019;-75
2022/11/11 03:45:46;;;;;;;5.57;2.00;;;8.50;99.90;;;;;;4945849;28;20095;-75
2022/11/11 03:48:11;;;;;;;4.40;2.05;;;8.50;99.90;;;;;;4940891;29;20107;-75
2022/11/11 03:50:37;;;;;;;6.63;2.25;;;8.50;99.90;;;;;;4938363;28;20123;-75
2022/11/11 03:53:04;;;;;;;3.70;1.88;;;8.70;99.90;;;;;;4952148;28;20118;-75
2022/11/11 03:55:29;;;;;;;4.22;1.55;;;8.60;99.90;;;;;;4934561;28;20036;-75
2022/11/11 03:57:55;;;;;;;4.85;2.25;;;8.50;99.90;;;;;;4939154;28;20035;-75
2022/11/11 04:00:24;;;;;;;3.15;1.60;;;8.60;99.90;;;;;;4931079;28;20087;-74
2022/11/11 04:11:29;;;;;;;3.22;1.75;;;8.80;99.90;;;;;;4936041;29;20161;-74
2022/11/11 04:16:44;;;;;;;5.20;2.05;;;8.60;99.90;;;;;;4935129;28;20059;-75
2022/11/11 04:21:54;;;;;;;3.08;1.40;;;8.70;99.90;;;;;;4941068;28;20426;-74
2022/11/11 04:27:13;;;;;;;3.30;1.38;;;8.80;99.90;;;;;;4941029;28;20413;-74
2022/11/11 04:29:39;;;;;;;4.75;1.50;;;8.90;99.90;;;;;;4934018;28;20050;-74
2022/11/11 04:34:56;;;;;;;4.63;1.73;;;8.90;99.90;;;;;;4932882;29;20624;-74
2022/11/11 04:37:23;;;;;;;3.65;1.65;;;8.80;99.90;;;;;;4945070;28;20031;-74
2022/11/11 04:42:34;;;;;;;4.25;1.60;;;8.60;99.90;;;;;;4946020;28;20050;-74
2022/11/11 04:47:53;;;;;;;5.10;1.70;;;8.60;99.90;;;;;;4939826;28;20078;-73
2022/11/11 04:50:20;;;;;;;2.55;1.35;;;8.50;99.90;;;;;;4939857;29;20035;-74
2022/11/11 04:52:46;;;;;;;3.03;1.42;;;8.50;99.90;;;;;;4932849;28;20095;-74
2022/11/11 04:57:56;;;;;;;;;;;8.70;99.90;;;;;;4937086;28;20102;-74
2022/11/11 05:00:22;;;;;;;3.42;1.50;;;8.80;99.90;;;;;;4931786;28;20346;-73
2022/11/11 05:08:54;;;;;;;4.40;1.30;;;8.60;99.90;;;;;;4933067;29;20126;-74
2022/11/11 05:11:01;;;;;;;5.10;2.60;;;8.80;99.90;;;;;;4935328;29;20055;-73
2022/11/11 05:21:56;;;;;;;3.30;1.40;;;8.90;99.90;;;;;;4928890;28;20041;-73
2022/11/11 05:27:07;;;;;;;4.13;1.25;;;8.90;99.90;;;;;;4928374;28;20050;-74
2022/11/11 05:29:32;;;;;;;2.58;1.00;;;8.70;99.90;;;;;;4926288;28;20044;-74
2022/11/11 05:31:58;;;;;;;2.88;1.70;;;8.70;99.90;;;;;;4929078;28;20027;-74
2022/11/11 05:34:23;;;;;;;3.75;1.40;;;8.60;99.90;;;;;;4935945;28;20044;-74
2022/11/11 05:36:49;;;;;;;2.33;1.25;;;8.50;99.90;;;;;;4934623;28;20035;-73
2022/11/11 05:39:15;;;;;;;6.50;1.30;;;8.30;99.90;;;;;;4933574;28;20027;-73
2022/11/11 05:41:40;;;;;;;3.40;1.25;;;8.20;99.90;;;;;;4928672;29;20038;-73
2022/11/11 05:44:06;;;;;;;4.32;1.27;;;8.10;99.90;;;;;;4929091;28;20027;-74
2022/11/11 05:46:32;;;;;;;3.58;1.75;;;8.20;99.90;;;;;;4929730;28;20040;-74
2022/11/11 05:49:15;;;;;;;2.67;1.20;;;8.00;99.90;;;;;;4932506;28;20039;-74
2022/11/11 05:51:42;;;;;;;2.55;1.20;;;8.10;99.90;;;;;;4929811;29;20136;-74
2022/11/11 05:54:07;;;;;;;4.65;1.77;;;8.30;99.90;;;;;;4935611;28;20043;-74
2022/11/11 05:56:33;;;;;;;4.00;1.67;;;8.50;99.90;;;;;;4925006;28;20032;-74
2022/11/11 05:58:59;;;;;;;3.10;1.60;;;8.50;99.90;;;;;;4941630;28;20043;-74
2022/11/11 06:01:25;;;;;;;3.45;1.55;;;8.30;99.90;;;;;;4933005;28;20213;-74
2022/11/11 06:03:50;;;;;;;3.63;1.90;;;8.30;99.90;;;;;;4935458;28;20039;-74
2022/11/11 06:06:16;;;;;;;5.40;1.83;;;8.30;99.90;;;;;;4932987;28;20031;-74
2022/11/11 06:08:42;;;;;;;4.00;1.75;;;8.30;99.90;;;;;;4938892;28;20038;-74
2022/11/11 06:11:08;;;;;;;3.00;1.38;;;8.20;99.90;;;;;;4930297;28;20442;-74
2022/11/11 06:13:33;;;;;;;5.30;1.70;;;8.20;99.90;;;;;;4942036;28;20027;-74
2022/11/11 06:15:59;;;;;;;3.92;1.77;;;8.30;99.90;;;;;;4939322;28;20035;-74
2022/11/11 06:18:25;;;;;;;2.92;1.58;;;8.50;99.90;;;;;;4930218;28;20066;-73
2022/11/11 06:20:58;;;;;;;2.78;1.48;;;8.50;99.90;;;;;;4939014;28;20036;-73
2022/11/11 06:23:25;;;;;;;2.83;1.55;;;8.50;99.90;;;;;;4940471;28;20044;-73
2022/11/11 06:28:35;;;;;;;;;;;8.50;99.90;;;;;;4928223;28;20090;-73
2022/11/11 06:31:02;;;;;;;4.25;2.05;;;8.60;99.90;;;;;;4933220;28;19930;-73
2022/11/11 06:33:27;;;;;;;6.25;1.60;;;8.70;99.90;;;;;;4932567;28;20787;-73
2022/11/11 06:35:53;;;;;;;3.05;1.40;;;8.50;99.90;;;;;;4944002;28;20090;-72
2022/11/11 06:38:19;;;;;;;3.40;1.52;;;8.70;99.90;;;;;;4928550;28;20505;-72
2022/11/11 06:40:45;;;;;;;5.15;1.30;;;8.50;99.90;;;;;;4928124;28;20115;-73
2022/11/11 06:43:11;;;;;;;2.92;1.50;;;8.60;99.90;;;;;;4931722;29;20569;-73
2022/11/11 06:45:37;;;;;;;2.70;1.75;;;8.50;99.90;;;;;;4943250;28;20280;-74
2022/11/11 06:48:03;;;;;;;2.85;1.30;;;8.50;99.90;;;;;;4944064;28;20514;-75
2022/11/11 06:50:33;;;;;;;3.88;1.75;;;8.50;99.90;;;;;;4933224;28;20051;-76
2022/11/11 06:53:06;;;;;;;3.22;2.00;;;8.60;99.90;;;;;;4939123;28;20625;-76
2022/11/11 06:55:33;;;;;;;5.40;1.20;;;8.70;99.90;;;;;;4931109;28;20038;-76
2022/11/11 06:58:31;;;;;;;3.78;1.70;;;8.60;99.90;;;;;;4933042;28;20133;-76
2022/11/11 07:00:57;;;;;;;3.28;1.52;;;8.70;99.90;;;;;;4947850;28;20082;-76
2022/11/11 07:03:22;;;;;;;4.78;1.60;;;8.70;99.90;;;;;;4935697;28;20055;-75
2022/11/11 07:05:48;;;;;;;5.07;1.90;;;8.60;99.90;;;;;;4942062;28;20038;-76
2022/11/11 07:08:16;;;;;;;4.65;1.30;;;8.70;99.90;;;;;;4940800;28;20040;-75
2022/11/11 07:10:47;;;;;;;2.85;1.58;;;8.70;99.90;;;;;;4926625;28;20135;-76
2022/11/11 07:13:14;;;;;;;3.95;1.40;;;8.70;99.90;;;;;;4929263;28;20031;-75
2022/11/11 07:15:42;;;;;;;4.60;1.60;;;8.70;99.90;;;;;;4932806;28;20039;-76
2022/11/11 07:18:08;;;;;;;2.97;1.58;;;8.70;99.90;;;;;;4933056;28;20059;-76
2022/11/11 07:20:34;;;;;;;2.58;1.25;;;8.70;99.90;;;;;;4930455;28;20094;-75
2022/11/11 07:23:00;;;;;;;4.40;1.75;;;8.80;99.90;;;;;;4931094;28;20126;-75
2022/11/11 07:25:25;;;;;;;3.97;1.50;;;8.70;99.90;;;;;;4936408;28;20141;-75
2022/11/11 07:27:51;;;;;;;4.55;1.30;;;8.70;99.90;;;;;;4930126;28;20035;-76
2022/11/11 07:30:18;;;;;;;3.80;2.03;;;8.70;99.90;;;;;;4934699;28;20560;-76
2022/11/11 07:32:48;;;;;;;3.22;1.50;;;8.80;99.90;;;;;;4937783;28;20035;-76
2022/11/11 07:35:15;;;;;;;3.40;1.30;;;8.70;99.90;;;;;;4936304;29;20042;-76
2022/11/11 07:37:41;;;;;;;4.07;1.52;;;8.80;99.90;;;;;;4928343;28;20059;-76
2022/11/11 07:40:08;;;;;;;3.50;1.38;;;8.70;99.90;;;;;;4930639;28;20041;-76
2022/11/11 07:42:41;;;;;;;2.95;1.30;;;8.80;99.90;;;;;;4937519;28;20038;-76
2022/11/11 07:45:09;;;;;;;4.32;1.60;;;8.70;99.90;;;;;;4931452;28;20093;-76
2022/11/11 07:47:35;;;;;;;2.97;1.42;;;8.70;99.90;;;;;;4931001;28;20027;-76
2022/11/11 07:50:02;;;;;;;3.17;1.45;;;8.70;99.90;;;;;;4933942;28;20090;-76
2022/11/11 07:52:28;;;;;;;3.38;1.70;;;8.80;99.90;;;;;;4931485;28;20039;-76
2022/11/11 07:54:54;;;;;;;3.05;1.45;;;8.90;99.90;;;;;;4926990;28;20081;-76
2022/11/11 07:57:19;;;;;;;3.50;1.55;;;8.90;99.90;;;;;;4935842;28;20031;-76
2022/11/11 07:59:46;;;;;;;3.20;1.40;;;8.90;99.90;;;;;;4936869;28;20040;-76
2022/11/11 08:02:12;;;;;;;3.03;1.45;;;8.90;99.90;;;;;;4933217;28;20035;-78
2022/11/11 08:04:38;;;;;;;2.70;1.45;;;8.80;99.90;;;;;;4932282;28;20035;-77
2022/11/11 08:07:04;;;;;;;2.33;1.10;;;8.80;99.90;;;;;;4934146;28;20537;-78
2022/11/11 08:09:29;;;;;;;2.97;1.70;;;8.90;99.90;;;;;;4935517;28;20055;-78
2022/11/11 08:14:39;;;;;;;5.32;1.88;;;9.10;99.90;;;;;;4927937;29;20067;-75
2022/11/11 08:17:05;;;;;;;3.35;1.33;;;9.10;99.90;;;;;;4937346;29;20035;-75
2022/11/11 08:19:31;;;;;;;4.82;1.67;;;9.10;99.90;;;;;;4931474;28;20876;-76
2022/11/11 08:21:56;;;;;;;2.65;1.20;;;9.20;99.90;;;;;;4935960;29;20027;-76
2022/11/11 08:24:22;;;;;;;3.53;1.15;;;9.10;99.90;;;;;;4934248;28;20028;-75
2022/11/11 08:26:49;;;;;;;2.80;1.50;;;9.00;99.90;;;;;;4936306;28;20161;-76
2022/11/11 08:29:14;;;;;;;3.67;1.40;;;9.00;99.90;;;;;;4947121;28;20459;-76
2022/11/11 08:31:40;;;;;;;3.15;1.70;;;9.00;99.90;;;;;;4930620;28;20027;-76
2022/11/11 08:34:06;;;;;;;4.10;1.50;;;9.10;99.90;;;;;;4934894;28;20458;-75
2022/11/11 08:36:32;;;;;;;3.35;1.48;;;9.10;99.90;;;;;;4940686;28;20039;-76
2022/11/11 08:38:57;;;;;;;3.65;1.52;;;9.10;99.90;;;;;;4952992;28;20015;-76
2022/11/11 08:41:23;;;;;;;5.97;1.80;;;9.20;99.90;;;;;;4938804;28;20080;-76
2022/11/11 08:43:54;;;;;;;5.50;1.90;;;9.30;99.90;;;;;;4941879;28;20023;-76
2022/11/11 08:46:20;;;;;;;3.47;2.15;;;9.30;99.90;;;;;;4936552;29;20028;-76
2022/11/11 08:48:46;;;;;;;4.10;1.70;;;9.30;99.90;;;;;;4934146;28;20111;-75
2022/11/11 08:51:12;;;;;;;4.25;1.75;;;9.20;99.90;;;;;;4935713;28;20122;-75
2022/11/11 08:53:38;;;;;;;3.72;1.40;;;9.20;99.90;;;;;;4934390;28;20124;-76
2022/11/11 08:56:04;;;;;;;3.03;1.40;;;9.30;99.90;;;;;;4941996;29;20024;-76
2022/11/11 08:58:30;;;;;;;2.70;1.35;;;9.30;99.90;;;;;;4932142;29;20566;-76
2022/11/11 09:00:56;;;;;;;5.10;2.40;;;9.30;99.90;;;;;;4934790;28;20059;-76
2022/11/11 09:03:22;;;;;;;2.92;1.60;;;9.30;99.90;;;;;;4936065;28;20058;-76
2022/11/11 09:05:48;;;;;;;2.65;1.38;;;9.30;99.90;;;;;;4942099;28;20110;-77
2022/11/11 09:08:14;;;;;;;3.03;1.48;;;9.40;99.90;;;;;;4939073;29;20482;-76
2022/11/11 09:10:39;;;;;;;2.78;1.20;;;9.30;99.90;;;;;;4934844;29;20091;-76
2022/11/11 09:13:05;;;;;;;3.33;1.45;;;9.40;99.90;;;;;;4941413;28;20038;-76
2022/11/11 09:15:31;;;;;;;4.13;1.40;;;9.30;99.90;;;;;;4937931;29;20043;-76
2022/11/11 09:17:57;;;;;;;2.97;1.35;;;9.20;99.90;;;;;;4935070;28;20388;-76
2022/11/11 09:20:23;;;;;;;2.80;1.35;;;9.20;99.90;;;;;;4938313;28;20036;-76
2022/11/11 09:22:49;;;;;;;3.38;1.70;;;9.20;99.90;;;;;;4936521;28;20120;-76
2022/11/11 09:25:16;;;;;;;7.32;1.85;;;9.20;99.90;;;;;;4932108;28;20038;-76
2022/11/11 09:27:42;;;;;;;3.67;1.73;;;9.20;99.90;;;;;;4935525;29;20365;-76
2022/11/11 09:30:09;;;;;;;2.65;1.17;;;9.30;99.90;;;;;;4934785;29;20049;-76
2022/11/11 09:32:35;;;;;;;3.80;1.65;;;9.20;99.90;;;;;;4935252;28;20118;-77
2022/11/11 09:35:02;;;;;;;4.95;1.40;;;9.20;99.90;;;;;;4939823;28;20031;-76
2022/11/11 09:37:28;;;;;;;3.25;1.50;;;9.20;99.90;;;;;;4940732;29;20039;-76
2022/11/11 09:39:56;;;;;;;4.53;1.50;;;9.30;99.90;;;;;;4935459;28;20091;-76
2022/11/11 09:42:47;;;;;;;4.85;1.52;;;9.40;99.90;;;;;;4934422;29;20106;-76
2022/11/11 09:45:24;;;;;;;3.17;1.80;;;9.50;99.90;;;;;;4938604;28;20028;-76
2022/11/11 09:47:53;;;;;;;7.20;2.67;;;9.60;99.90;;;;;;4938972;29;20040;-76
2022/11/11 09:50:24;;;;;;;6.25;2.83;;;9.80;99.90;;;;;;4935445;28;26008;-76
2022/11/11 09:53:08;;;;;;;6.18;2.25;;;9.90;99.90;;;;;;4934686;29;20039;-76
2022/11/11 09:55:43;;;;;;;3.30;1.55;;;10.00;99.90;;;;;;4936273;28;20114;-76
2022/11/11 09:58:34;;;;;;;4.05;2.00;;;10.10;99.90;;;;;;4938280;29;20036;-76
2022/11/11 10:01:20;;;;;;;3.90;1.88;;;10.10;99.90;;;;;;4927397;29;20051;-76
2022/11/11 10:04:13;;;;;;;4.80;1.70;;;10.20;99.90;;;;;;4937496;28;20040;-76
2022/11/11 10:06:39;;;;;;;4.72;2.20;;;10.30;99.90;;;;;;4930365;28;20071;-76
2022/11/11 10:09:51;;;;;;;4.50;2.05;;;10.50;99.90;;;;;;4941231;28;20054;-76
2022/11/11 10:12:20;;;;;;;5.32;1.90;;;10.50;99.90;;;;;;4941134;29;20569;-76
2022/11/11 10:14:49;;;;;;;5.45;2.33;;;10.70;99.90;;;;;;4939497;28;20066;-76
2022/11/11 10:17:39;;;;;;;6.60;2.70;;;10.80;99.90;;;;;;4927290;29;20050;-77
2022/11/11 10:20:22;;;;;;;4.30;1.70;;;10.90;99.90;;;;;;4926763;29;20035;-77
2022/11/11 10:22:59;;;;;;;4.20;2.40;;;10.90;99.90;;;;;;4929073;29;20036;-76
2022/11/11 10:25:25;;;;;;;6.18;1.98;;;10.80;99.90;;;;;;4937171;28;20487;-76
2022/11/11 10:27:55;;;;;;;5.60;2.67;;;10.70;99.90;;;;;;4928009;29;20479;-76
2022/11/11 10:30:32;;;;;;;9.50;2.92;;;10.80;99.90;;;;;;4927264;29;20045;-76
2022/11/11 10:33:16;;;;;;;6.85;2.55;;;10.80;99.90;;;;;;4927175;28;20115;-76
2022/11/11 10:35:43;;;;;;;5.90;2.22;;;10.80;99.90;;;;;;4939934;29;20034;-77
2022/11/11 10:38:09;;;;;;;7.78;2.38;;;10.90;99.90;;;;;;4938183;29;20214;-76
2022/11/11 10:40:54;;;;;;;3.95;2.05;;;10.90;99.90;;;;;;4934511;29;20650;-76
2022/11/11 10:43:27;;;;;;;4.45;1.90;;;10.90;99.90;;;;;;4943974;28;20063;-76
2022/11/11 10:45:55;;;;;;;3.97;2.05;;;11.00;99.90;;;;;;4943852;29;20052;-76
2022/11/11 10:48:32;;;;;;;4.75;2.10;;;11.10;99.90;;;;;;4930348;29;20031;-76
2022/11/11 10:51:01;;;;;;;9.15;2.40;;;11.10;99.90;;;;;;4936772;29;20135;-76
2022/11/11 10:54:07;;;;;;;5.07;2.40;;;11.10;99.90;;;;;;4947357;28;20035;-76
2022/11/11 10:56:42;;;;;;;11.15;2.10;;;11.20;99.90;;;;;;4935347;28;20487;-76
2022/11/11 10:59:23;;;;;;;4.93;2.53;;;11.40;99.90;;;;;;4928611;29;25612;-76
2022/11/11 11:02:03;;;;;;;6.82;2.42;;;11.50;99.90;;;;;;4938636;29;20511;-76
2022/11/11 11:05:10;;;;;;;3.78;2.20;;;11.50;99.90;;;;;;4938553;29;20655;-76
2022/11/11 11:07:41;;;;;;;6.28;2.30;;;11.40;99.90;;;;;;4938330;28;20047;-76
2022/11/11 11:10:31;;;;;;;5.80;2.03;;;11.60;99.90;;;;;;4936455;28;20129;-77
2022/11/11 11:13:10;;;;;;;4.95;2.38;;;11.50;99.90;;;;;;4936739;29;20043;-76
2022/11/11 11:15:43;;;;;;;4.68;2.55;;;11.50;99.90;;;;;;4939442;28;20027;-77
2022/11/11 11:18:14;;;;;;;5.28;2.50;;;11.60;99.90;;;;;;4940125;29;20058;-77
2022/11/11 11:21:01;;;;;;;5.68;2.50;;;11.60;99.90;;;;;;4938738;29;20034;-76
2022/11/11 11:23:38;;;;;;;5.00;2.47;;;11.70;99.90;;;;;;4939449;28;20042;-76
2022/11/11 11:26:04;;;;;;;3.67;2.20;;;11.80;99.90;;;;;;4937448;29;20053;-76
2022/11/11 11:28:30;;;;;;;8.88;2.72;;;11.70;99.90;;;;;;4939194;29;20102;-76
2022/11/11 11:31:05;;;;;;;4.32;1.98;;;11.90;99.90;;;;;;4936916;28;20083;-76
2022/11/11 11:33:54;;;;;;;5.15;2.40;;;11.90;99.90;;;;;;4931605;28;20505;-77
2022/11/11 11:36:19;;;;;;;4.93;2.17;;;11.80;99.90;;;;;;4929574;29;20055;-76
2022/11/11 11:38:51;;;;;;;3.35;2.10;;;11.80;99.90;;;;;;4932163;28;20065;-76
2022/11/11 11:41:35;;;;;;;9.02;2.30;;;11.90;99.90;;;;;;4938326;29;20039;-76
2022/11/11 11:44:00;;;;;;;3.40;1.83;;;11.80;99.90;;;;;;4930306;28;25437;-76
2022/11/11 11:46:37;;;;;;;3.90;2.10;;;12.00;99.90;;;;;;4936157;29;20054;-77
2022/11/11 11:49:10;;;;;;;3.55;1.85;;;12.10;99.90;;;;;;4933844;28;20403;-77
2022/11/11 11:52:15;;;;;;;4.80;2.15;;;12.20;99.90;;;;;;4940945;29;20093;-76
2022/11/11 11:54:50;;;;;;;6.53;2.30;;;12.30;99.90;;;;;;4939556;28;20032;-77
2022/11/11 11:57:51;;;;;;;4.60;2.35;;;12.50;99.90;;;;;;4943943;29;20031;-77
2022/11/11 12:00:24;;;;;;;4.03;2.17;;;12.60;99.90;;;;;;4929745;29;20051;-77
2022/11/11 12:03:17;;;;;;;4.82;1.88;;;12.50;99.90;;;;;;4938362;29;20122;-77
2022/11/11 12:05:54;;;;;;;5.70;2.00;;;12.50;99.90;;;;;;4936175;29;20023;-77
2022/11/11 12:08:20;;;;;;;5.38;2.03;;;12.50;99.90;;;;;;4933319;29;20031;-75
2022/11/11 12:11:03;;;;;;;4.10;1.80;;;12.50;99.90;;;;;;4937759;29;20031;-76
2022/11/11 12:13:41;;;;;;;6.38;2.00;;;12.60;99.90;;;;;;4930152;28;20032;-78
2022/11/11 12:16:19;;;;;;;5.90;1.85;;;12.50;99.90;;;;;;4935575;28;20113;-77
2022/11/11 12:19:10;;;;;;;4.07;1.77;;;12.50;99.90;;;;;;4927876;29;20036;-76
2022/11/11 12:21:53;;;;;;;5.97;2.63;;;12.60;99.90;;;;;;4935551;29;20471;-77
2022/11/11 12:25:02;;;;;;;7.38;2.83;;;12.70;99.90;;;;;;4940637;28;20110;-77
2022/11/11 12:27:27;;;;;;;6.72;2.15;;;12.80;99.90;;;;;;4941899;28;20494;-76
2022/11/11 12:30:27;;;;;;;3.97;2.00;;;12.80;99.90;;;;;;4934073;29;20044;-77
2022/11/11 12:33:32;;;;;;;4.88;2.42;;;12.70;99.90;;;;;;4950861;29;20048;-77
2022/11/11 12:36:10;;;;;;;3.70;1.80;;;12.70;99.90;;;;;;4943520;28;20039;-76
2022/11/11 12:38:54;;;;;;;4.35;1.85;;;12.70;99.90;;;;;;4927252;29;20058;-76
2022/11/11 12:41:31;;;;;;;4.85;1.70;;;12.70;99.90;;;;;;4926445;29;20043;-76
2022/11/11 12:44:02;;;;;;;4.57;2.22;;;12.70;99.90;;;;;;4935309;28;20437;-75
2022/11/11 12:46:41;;;;;;;5.20;1.65;;;12.60;99.90;;;;;;4939699;28;20031;-75
2022/11/11 12:49:44;;;;;;;4.70;2.13;;;12.60;99.90;;;;;;4930307;29;20032;-76
2022/11/11 12:52:42;;;;;;;4.45;2.10;;;12.60;99.90;;;;;;4932625;29;20029;-75
2022/11/11 12:55:34;;;;;;;3.92;2.13;;;12.70;99.90;;;;;;4932175;28;20039;-76
2022/11/11 12:58:21;;;;;;;3.63;1.95;;;12.70;99.90;;;;;;4929571;28;20058;-76
2022/11/11 13:01:11;;;;;;;4.05;2.10;;;12.70;99.90;;;;;;4923551;29;20031;-76
2022/11/11 13:04:01;;;;;;;6.65;2.38;;;12.70;99.90;;;;;;4924049;29;20090;-76
2022/11/11 13:07:01;;;;;;;4.57;2.20;;;12.80;99.90;;;;;;4929022;29;20027;-76
2022/11/11 13:10:02;;;;;;;4.18;1.83;;;12.70;99.90;;;;;;4934768;29;20161;-76
2022/11/11 13:13:13;;;;;;;7.70;2.42;;;12.70;99.90;;;;;;4945283;28;20058;-76
2022/11/11 13:15:39;;;;;;;6.07;2.08;;;12.80;99.90;;;;;;4927639;29;20175;-76
2022/11/11 13:18:17;;;;;;;4.18;2.42;;;12.90;99.90;;;;;;4930624;29;20114;-76
2022/11/11 13:20:58;;;;;;;5.75;2.88;;;13.00;99.90;;;;;;4934836;29;20036;-77
2022/11/11 13:23:24;;;;;;;6.00;2.20;;;13.10;99.90;;;;;;4931210;28;20126;-76
2022/11/11 13:25:59;;;;;;;6.18;2.33;;;13.10;99.90;;;;;;4928449;29;20110;-77
2022/11/11 13:28:39;;;;;;;6.18;2.58;;;13.10;99.90;;;;;;4934842;28;20027;-76
2022/11/11 13:31:22;;;;;;;5.65;2.47;;;13.10;99.90;;;;;;4927499;28;20111;-76
2022/11/11 13:33:53;;;;;;;4.00;1.98;;;13.20;99.90;;;;;;4931359;29;20034;-76
2022/11/11 13:36:23;;;;;;;4.05;1.90;;;13.20;99.90;;;;;;4932928;28;20702;-77
2022/11/11 13:38:58;;;;;;;4.85;2.42;;;13.20;99.90;;;;;;4926364;29;20031;-76
2022/11/11 13:41:34;;;;;;;19.15;10.40;;;13.10;99.90;;;;;;4944886;29;20541;-79
2022/11/11 13:44:04;;;;;;;10.55;5.78;;;13.00;99.90;;;;;;4935003;28;20034;-76
2022/11/11 13:46:33;;;;;;;6.32;3.08;;;13.10;99.90;;;;;;4937389;28;20142;-76
2022/11/11 13:49:01;;;;;;;5.88;2.95;;;13.10;99.90;;;;;;4936844;29;20489;-75
2022/11/11 13:51:39;;;;;;;4.18;1.90;;;13.10;99.90;;;;;;4931953;29;20032;-75
2022/11/11 13:54:35;;;;;;;4.13;1.70;;;13.10;99.90;;;;;;4939930;28;20406;-75
2022/11/11 13:57:22;;;;;;;8.45;1.70;;;13.10;99.90;;;;;;4934455;29;20562;-75
2022/11/11 14:00:00;;;;;;;4.55;2.85;;;13.40;99.90;;;;;;4936093;28;20054;-75
2022/11/11 14:02:30;;;;;;;6.75;4.00;;;13.30;99.90;;;;;;4930201;29;20123;-76
2022/11/11 14:05:02;;;;;;;5.20;2.15;;;13.20;99.90;;;;;;4930119;29;20110;-76
2022/11/11 14:07:43;;;;;;;7.40;3.35;;;13.10;99.90;;;;;;4930764;29;20033;-75
2022/11/11 14:10:15;;;;;;;6.30;3.53;;;13.10;99.90;;;;;;4937102;28;20035;-75
2022/11/11 14:12:41;;;;;;;4.85;1.85;;;13.10;99.90;;;;;;4932563;29;20030;-76
2022/11/11 14:15:33;;;;;;;6.13;1.75;;;13.00;99.90;;;;;;4928364;29;20951;-76
2022/11/11 14:17:59;;;;;;;5.72;1.80;;;12.90;99.90;;;;;;4933732;28;20042;-75
2022/11/11 14:20:40;;;;;;;5.80;1.92;;;12.90;99.90;;;;;;4940348;28;20039;-76
2022/11/11 14:23:37;;;;;;;6.22;2.13;;;12.90;99.90;;;;;;4934412;28;20498;-76
2022/11/11 14:26:05;;;;;;;4.95;2.25;;;12.90;99.90;;;;;;4931628;29;20067;-76
2022/11/11 14:28:33;;;;;;;3.97;1.70;;;12.90;99.90;;;;;;4936108;29;20046;-76
2022/11/11 14:31:11;;;;;;;5.05;1.80;;;12.80;99.90;;;;;;4938233;28;20039;-76
2022/11/11 14:34:04;;;;;;;3.95;1.95;;;12.80;99.90;;;;;;4935349;28;20063;-76
2022/11/11 14:36:48;;;;;;;4.15;1.77;;;12.70;99.90;;;;;;4937636;29;20039;-76